createdAt,value
2018-02-06T00:00:59.534Z,86.67
2018-02-06T00:01:59.479Z,86.86
2018-02-06T00:02:59.432Z,86.86
2018-02-06T00:03:59.380Z,87.14
2018-02-06T00:04:59.331Z,87.05
2018-02-06T00:05:59.277Z,86.86
2018-02-06T00:06:59.230Z,86.67
2018-02-06T00:07:59.177Z,86.95
2018-02-06T00:08:59.122Z,86.67
2018-02-06T00:09:59.073Z,87.24
2018-02-06T00:10:59.022Z,87.24
2018-02-06T00:11:58.968Z,87.80
2018-02-06T00:12:58.924Z,87.62
2018-02-06T00:13:58.864Z,87.90
2018-02-06T00:14:58.817Z,88.09
2018-02-06T00:15:58.764Z,87.90
2018-02-06T00:16:58.712Z,88.18
2018-02-06T00:17:58.662Z,87.80
2018-02-06T00:18:58.611Z,87.62
2018-02-06T00:19:58.561Z,87.62
2018-02-06T00:20:58.508Z,87.62
2018-02-06T00:21:58.454Z,87.43
2018-02-06T00:22:58.409Z,87.62
2018-02-06T00:23:58.357Z,87.80
2018-02-06T00:24:58.303Z,87.62
2018-02-06T00:25:58.252Z,87.71
2018-02-06T00:26:58.200Z,87.71
2018-02-06T00:27:58.153Z,87.71
2018-02-06T00:28:58.097Z,88.09
2018-02-06T00:29:58.048Z,87.99
2018-02-06T00:30:57.997Z,88.28
2018-02-06T00:31:57.944Z,88.18
2018-02-06T00:32:57.891Z,88.46
2018-02-06T00:33:57.903Z,88.09
2018-02-06T00:34:57.790Z,87.99
2018-02-06T00:35:57.742Z,87.33
2018-02-06T00:36:57.690Z,87.80
2018-02-06T00:37:57.639Z,87.71
2018-02-06T00:38:57.585Z,87.62
2018-02-06T00:39:57.534Z,87.52
2018-02-06T00:40:57.484Z,87.33
2018-02-06T00:41:57.444Z,87.43
2018-02-06T00:42:57.384Z,87.80
2018-02-06T00:43:57.332Z,87.62
2018-02-06T00:44:57.278Z,87.24
2018-02-06T00:45:57.226Z,87.43
2018-02-06T00:46:57.176Z,87.33
2018-02-06T00:47:57.122Z,87.90
2018-02-06T00:48:57.072Z,87.62
2018-02-06T00:49:57.022Z,88.28
2018-02-06T00:50:56.969Z,88.18
2018-02-06T00:51:56.918Z,88.18
2018-02-06T00:52:56.867Z,88.09
2018-02-06T00:53:56.817Z,88.37
2018-02-06T00:54:56.766Z,88.46
2018-02-06T00:55:56.716Z,88.56
2018-02-06T00:56:56.660Z,88.46
2018-02-06T00:57:56.609Z,87.99
2018-02-06T00:58:56.563Z,87.99
2018-02-06T00:59:56.507Z,88.28
2018-02-06T01:00:56.456Z,88.56
2018-02-06T01:01:56.403Z,88.46
2018-02-06T01:02:56.353Z,88.37
2018-02-06T01:03:56.305Z,88.37
2018-02-06T01:04:56.256Z,88.18
2018-02-06T01:05:56.202Z,88.37
2018-02-06T01:06:56.151Z,88.28
2018-02-06T01:07:56.095Z,88.28
2018-02-06T01:08:56.046Z,88.18
2018-02-06T01:09:55.995Z,88.28
2018-02-06T01:10:55.946Z,88.28
2018-02-06T01:11:55.895Z,88.28
2018-02-06T01:12:55.851Z,88.93
2018-02-06T01:13:55.788Z,88.09
2018-02-06T01:14:55.743Z,88.65
2018-02-06T01:15:55.684Z,88.65
2018-02-06T01:16:55.638Z,88.46
2018-02-06T01:17:55.584Z,88.93
2018-02-06T01:18:55.532Z,88.28
2018-02-06T01:19:55.481Z,88.09
2018-02-06T01:20:55.432Z,88.09
2018-02-06T01:21:55.382Z,88.28
2018-02-06T01:22:55.329Z,88.09
2018-02-06T01:23:55.274Z,87.99
2018-02-06T01:24:55.223Z,88.46
2018-02-06T01:25:55.174Z,88.18
2018-02-06T01:26:55.122Z,87.80
2018-02-06T01:27:55.075Z,88.09
2018-02-06T01:28:55.021Z,88.09
2018-02-06T01:29:54.964Z,88.28
2018-02-06T01:30:54.917Z,87.71
2018-02-06T01:31:54.867Z,88.09
2018-02-06T01:32:54.814Z,87.99
2018-02-06T01:33:54.761Z,88.56
2018-02-06T01:34:54.710Z,87.80
2018-02-06T01:35:54.657Z,88.09
2018-02-06T01:36:54.610Z,87.99
2018-02-06T01:37:54.556Z,87.80
2018-02-06T01:38:54.503Z,87.52
2018-02-06T01:39:54.452Z,87.52
2018-02-06T01:40:54.401Z,87.52
2018-02-06T01:41:54.350Z,88.28
2018-02-06T01:42:54.295Z,88.37
2018-02-06T01:43:54.247Z,88.18
2018-02-06T01:44:54.203Z,88.18
2018-02-06T01:45:54.141Z,87.71
2018-02-06T01:46:54.098Z,87.80
2018-02-06T01:47:54.045Z,87.71
2018-02-06T01:48:53.987Z,87.62
2018-02-06T01:49:53.941Z,87.62
2018-02-06T01:50:53.884Z,87.62
2018-02-06T01:51:53.832Z,87.24
2018-02-06T01:52:53.780Z,87.80
2018-02-06T01:53:53.729Z,87.71
2018-02-06T01:54:53.679Z,87.52
2018-02-06T01:55:53.627Z,87.90
2018-02-06T01:56:53.578Z,88.09
2018-02-06T01:57:53.527Z,88.09
2018-02-06T01:58:53.476Z,87.71
2018-02-06T01:59:53.421Z,87.14
2018-02-06T02:00:53.370Z,87.43
2018-02-06T02:01:53.320Z,87.05
2018-02-06T02:02:53.267Z,87.14
2018-02-06T02:03:53.255Z,87.05
2018-02-06T02:04:53.164Z,86.86
2018-02-06T02:05:53.113Z,87.14
2018-02-06T02:06:53.064Z,86.95
2018-02-06T02:07:53.012Z,86.95
2018-02-06T02:08:52.959Z,87.43
2018-02-06T02:09:52.906Z,87.71
2018-02-06T02:10:52.855Z,87.62
2018-02-06T02:11:52.805Z,87.62
2018-02-06T02:12:52.751Z,87.05
2018-02-06T02:13:52.705Z,86.95
2018-02-06T02:14:52.649Z,87.24
2018-02-06T02:15:52.602Z,87.99
2018-02-06T02:16:52.550Z,88.09
2018-02-06T02:17:52.495Z,87.62
2018-02-06T02:18:52.442Z,87.52
2018-02-06T02:19:52.392Z,87.14
2018-02-06T02:20:52.341Z,87.52
2018-02-06T02:21:52.287Z,87.14
2018-02-06T02:22:52.239Z,87.43
2018-02-06T02:30:53.592Z,87.90
2018-02-06T02:31:47.282Z,87.52
2018-02-06T02:32:47.221Z,88.18
2018-02-06T02:33:47.168Z,88.46
2018-02-06T02:34:47.116Z,88.37
2018-02-06T02:35:47.064Z,88.84
2018-02-06T02:36:47.014Z,88.65
2018-02-06T02:37:46.963Z,88.65
2018-02-06T02:38:46.909Z,88.46
2018-02-06T02:39:46.859Z,88.46
2018-02-06T02:40:46.805Z,88.46
2018-02-06T04:38:40.710Z,89.88
2018-02-06T04:39:40.651Z,90.73
2018-02-06T04:40:40.600Z,91.77
2018-02-06T04:41:40.557Z,91.49
2018-02-06T04:42:40.496Z,91.39
2018-02-06T04:43:40.444Z,91.01
2018-02-06T04:44:40.392Z,91.11
2018-02-06T04:45:40.340Z,91.01
2018-02-06T04:46:40.289Z,91.01
2018-02-06T04:47:40.236Z,90.92
2018-02-06T04:48:40.186Z,91.39
2018-02-06T04:49:40.132Z,91.30
2018-02-06T04:50:40.080Z,91.20
2018-02-06T04:51:40.030Z,91.01
2018-02-06T04:52:39.977Z,91.01
2018-02-06T04:53:39.928Z,90.82
2018-02-06T04:54:39.875Z,91.11
2018-02-06T04:55:39.828Z,90.26
2018-02-06T04:56:39.773Z,90.35
2018-02-06T04:57:39.721Z,91.11
2018-02-06T04:58:39.669Z,91.20
2018-02-06T04:59:39.614Z,91.01
2018-02-06T05:00:39.570Z,90.54
2018-02-06T05:01:39.513Z,91.30
2018-02-06T05:02:39.479Z,91.58
2018-02-06T05:03:39.407Z,90.92
2018-02-06T05:04:39.359Z,91.20
2018-02-06T05:05:39.303Z,91.39
2018-02-06T05:06:39.254Z,91.96
2018-02-06T05:07:39.200Z,91.96
2018-02-06T05:08:39.149Z,92.05
2018-02-06T05:09:39.106Z,91.67
2018-02-06T05:10:39.047Z,91.58
2018-02-06T05:11:38.991Z,91.58
2018-02-06T05:12:38.941Z,91.86
2018-02-06T05:13:38.889Z,92.33
2018-02-06T05:14:38.838Z,91.86
2018-02-06T05:15:38.785Z,92.33
2018-02-06T05:16:38.733Z,91.58
2018-02-06T05:17:38.683Z,91.86
2018-02-06T05:18:38.628Z,91.86
2018-02-06T05:19:38.577Z,92.05
2018-02-06T05:20:38.527Z,92.14
2018-02-06T05:21:38.477Z,91.96
2018-02-06T05:22:38.437Z,91.30
2018-02-06T05:23:38.373Z,90.82
2018-02-06T05:24:38.320Z,91.49
2018-02-06T05:25:38.268Z,91.39
2018-02-06T05:26:38.212Z,91.49
2018-02-06T05:27:38.178Z,91.01
2018-02-06T05:28:38.111Z,91.49
2018-02-06T05:29:38.058Z,91.20
2018-02-06T05:30:38.017Z,91.49
2018-02-06T05:31:37.952Z,90.92
2018-02-06T05:32:37.907Z,91.30
2018-02-06T05:33:37.852Z,90.92
2018-02-06T05:34:37.798Z,91.30
2018-02-06T05:35:37.750Z,91.01
2018-02-06T05:36:37.701Z,90.82
2018-02-06T05:37:37.647Z,90.54
2018-02-06T05:38:37.599Z,90.45
2018-02-06T05:39:37.537Z,90.35
2018-02-06T05:40:37.486Z,90.54
2018-02-06T05:41:37.435Z,90.82
2018-02-06T05:42:37.384Z,91.01
2018-02-06T05:43:37.332Z,90.64
2018-02-06T05:44:37.278Z,90.64
2018-02-06T05:45:37.226Z,90.73
2018-02-06T05:46:37.174Z,90.73
2018-02-06T05:47:37.124Z,90.64
2018-02-06T05:48:37.071Z,90.54
2018-02-06T05:49:37.019Z,90.16
2018-02-06T05:50:36.970Z,89.97
2018-02-06T05:51:36.917Z,89.97
2018-02-06T05:52:36.865Z,90.73
2018-02-06T05:53:36.818Z,90.64
2018-02-06T05:54:36.756Z,90.35
2018-02-06T05:55:36.710Z,90.64
2018-02-06T05:56:36.657Z,90.92
2018-02-06T05:57:36.604Z,90.45
2018-02-06T05:58:36.550Z,90.16
2018-02-06T05:59:36.501Z,89.40
2018-02-06T06:00:36.449Z,89.78
2018-02-06T06:01:36.400Z,89.78
2018-02-06T06:02:36.348Z,89.03
2018-02-06T06:03:36.334Z,89.22
2018-02-06T06:04:36.245Z,89.22
2018-02-06T06:05:36.195Z,89.50
2018-02-06T06:06:36.140Z,89.22
2018-02-06T06:07:36.084Z,89.03
2018-02-06T06:08:36.039Z,88.93
2018-02-06T06:09:35.986Z,89.69
2018-02-06T06:10:35.939Z,89.69
2018-02-06T06:11:35.881Z,89.22
2018-02-06T06:12:35.832Z,89.22
2018-02-06T06:13:35.776Z,89.22
2018-02-06T06:14:35.728Z,89.50
2018-02-06T06:15:35.678Z,89.69
2018-02-06T06:16:35.625Z,89.59
2018-02-06T06:17:35.576Z,89.50
2018-02-06T06:18:35.518Z,89.59
2018-02-06T06:19:35.465Z,89.22
2018-02-06T06:20:38.669Z,89.22
2018-02-06T06:21:35.362Z,89.22
2018-02-06T06:22:35.310Z,89.22
2018-02-06T06:23:35.257Z,88.93
2018-02-06T06:24:35.205Z,89.59
2018-02-06T06:25:35.158Z,90.35
2018-02-06T06:26:35.107Z,89.78
2018-02-06T06:27:35.050Z,89.40
2018-02-06T06:28:35.004Z,88.75
2018-02-06T06:29:34.950Z,88.84
2018-02-06T06:30:34.895Z,89.12
2018-02-06T06:31:34.847Z,89.12
2018-02-06T06:32:34.791Z,88.93
2018-02-06T06:33:34.746Z,89.22
2018-02-06T06:34:34.688Z,89.40
2018-02-06T06:35:34.643Z,89.03
2018-02-06T06:36:34.589Z,89.78
2018-02-06T06:37:34.539Z,90.45
2018-02-06T06:38:34.484Z,89.69
2018-02-06T06:39:34.437Z,89.69
2018-02-06T06:40:34.378Z,89.78
2018-02-06T06:41:34.330Z,89.50
2018-02-06T06:42:34.277Z,89.59
2018-02-06T06:43:34.221Z,89.50
2018-02-06T06:44:34.173Z,89.31
2018-02-06T06:45:34.120Z,89.40
2018-02-06T06:46:34.068Z,89.03
2018-02-06T06:47:34.017Z,89.59
2018-02-06T06:48:33.969Z,89.59
2018-02-06T06:49:33.920Z,89.12
2018-02-06T06:50:33.864Z,88.84
2018-02-06T06:51:33.811Z,88.93
2018-02-06T06:52:33.758Z,89.22
2018-02-06T06:53:33.707Z,89.40
2018-02-06T06:54:33.664Z,89.22
2018-02-06T06:55:33.607Z,89.50
2018-02-06T06:56:33.553Z,89.22
2018-02-06T06:57:33.500Z,90.16
2018-02-06T06:58:33.450Z,90.54
2018-02-06T06:59:33.394Z,90.16
2018-02-06T07:00:33.344Z,89.69
2018-02-06T07:01:33.294Z,88.93
2018-02-06T07:02:33.244Z,88.75
2018-02-06T07:03:33.190Z,89.03
2018-02-06T07:04:33.143Z,89.22
2018-02-06T07:05:33.090Z,89.03
2018-02-06T07:06:33.032Z,89.03
2018-02-06T07:07:32.981Z,88.46
2018-02-06T07:08:32.934Z,88.65
2018-02-06T07:09:32.881Z,89.22
2018-02-06T07:10:32.828Z,88.84
2018-02-06T07:11:32.776Z,89.22
2018-02-06T07:12:32.722Z,89.03
2018-02-06T07:13:32.675Z,89.22
2018-02-06T07:14:32.621Z,89.40
2018-02-06T07:15:32.573Z,89.31
2018-02-06T07:16:32.516Z,89.22
2018-02-06T07:17:32.467Z,89.22
2018-02-06T07:18:32.412Z,89.22
2018-02-06T07:19:32.365Z,89.69
2018-02-06T07:20:32.308Z,90.35
2018-02-06T07:21:32.260Z,90.16
2018-02-06T07:22:32.205Z,90.16
2018-02-06T07:23:32.154Z,90.07
2018-02-06T07:24:32.112Z,90.07
2018-02-06T07:25:32.051Z,89.69
2018-02-06T07:26:32.004Z,89.78
2018-02-06T07:27:31.953Z,89.31
2018-02-06T07:28:31.901Z,89.31
2018-02-06T07:29:31.849Z,88.93
2018-02-06T07:30:31.793Z,89.12
2018-02-06T07:31:31.743Z,88.84
2018-02-06T07:32:31.695Z,89.03
2018-02-06T07:33:31.646Z,89.40
2018-02-06T07:34:31.590Z,89.59
2018-02-06T07:35:31.539Z,89.40
2018-02-06T07:36:31.485Z,89.69
2018-02-06T07:37:31.432Z,89.31
2018-02-06T07:38:31.378Z,89.69
2018-02-06T07:39:31.324Z,89.03
2018-02-06T07:40:31.286Z,89.59
2018-02-06T07:41:31.224Z,89.50
2018-02-06T07:42:31.171Z,89.03
2018-02-06T07:43:31.119Z,88.65
2018-02-06T07:44:31.066Z,89.03
2018-02-06T07:45:31.017Z,90.16
2018-02-06T07:46:30.962Z,90.35
2018-02-06T07:47:30.922Z,90.16
2018-02-06T07:48:30.864Z,89.78
2018-02-06T07:49:30.809Z,89.50
2018-02-06T07:50:30.763Z,89.22
2018-02-06T07:51:30.714Z,89.50
2018-02-06T07:52:30.653Z,89.22
2018-02-06T07:53:30.606Z,89.22
2018-02-06T07:54:30.551Z,89.03
2018-02-06T07:55:30.503Z,89.40
2018-02-06T07:56:30.449Z,89.78
2018-02-06T07:57:30.397Z,89.59
2018-02-06T07:58:30.346Z,89.22
2018-02-06T07:59:30.292Z,89.22
2018-02-06T08:00:30.244Z,88.56
2018-02-06T08:01:30.190Z,89.50
2018-02-06T08:02:30.139Z,89.88
2018-02-06T08:03:30.087Z,89.97
2018-02-06T08:04:30.035Z,90.16
2018-02-06T08:05:29.986Z,89.59
2018-02-06T08:06:29.968Z,89.40
2018-02-06T08:07:29.885Z,89.40
2018-02-06T08:08:29.830Z,89.40
2018-02-06T08:09:29.779Z,89.69
2018-02-06T08:10:29.727Z,89.97
2018-02-06T08:11:29.672Z,89.78
2018-02-06T08:12:29.620Z,89.59
2018-02-06T08:13:29.570Z,89.88
2018-02-06T08:14:29.518Z,89.59
2018-02-06T08:15:29.469Z,90.16
2018-02-06T08:16:29.417Z,90.16
2018-02-06T08:17:29.366Z,90.26
2018-02-06T08:18:29.314Z,90.82
2018-02-06T08:19:29.264Z,89.88
2018-02-06T08:20:29.206Z,90.07
2018-02-06T08:21:29.158Z,90.35
2018-02-06T08:22:29.105Z,90.35
2018-02-06T08:23:29.059Z,89.69
2018-02-06T08:24:29.002Z,89.59
2018-02-06T08:25:28.950Z,89.40
2018-02-06T08:26:28.900Z,88.93
2018-02-06T08:27:28.847Z,89.78
2018-02-06T08:28:28.794Z,89.59
2018-02-06T08:29:28.748Z,89.69
2018-02-06T08:30:28.692Z,89.50
2018-02-06T08:31:28.642Z,89.22
2018-02-06T08:32:28.590Z,89.59
2018-02-06T08:33:28.538Z,90.07
2018-02-06T08:34:28.488Z,89.88
2018-02-06T08:35:28.435Z,89.40
2018-02-06T08:36:28.382Z,89.22
2018-02-06T08:37:28.331Z,89.69
2018-02-06T08:38:28.279Z,89.03
2018-02-06T08:39:28.227Z,89.12
2018-02-06T08:40:28.179Z,89.12
2018-02-06T08:41:28.125Z,88.75
2018-02-06T08:42:28.072Z,88.56
2018-02-06T08:43:28.024Z,88.84
2018-02-06T08:44:27.970Z,89.22
2018-02-06T08:45:27.926Z,89.12
2018-02-06T08:46:27.873Z,88.28
2018-02-06T08:47:27.820Z,88.28
2018-02-06T08:48:27.764Z,88.46
2018-02-06T08:49:27.717Z,88.70
2018-02-06T08:50:27.664Z,88.51
2018-02-06T08:51:27.612Z,88.09
2018-02-06T08:52:27.562Z,88.04
2018-02-06T08:53:27.511Z,87.85
2018-02-06T08:54:27.458Z,88.51
2018-02-06T08:55:27.406Z,88.51
2018-02-06T08:56:27.353Z,88.98
2018-02-06T08:57:27.307Z,88.51
2018-02-06T08:58:27.250Z,88.70
2018-02-06T08:59:27.200Z,87.66
2018-02-06T09:00:27.150Z,87.28
2018-02-06T09:01:27.103Z,86.99
2018-02-06T09:02:27.052Z,86.90
2018-02-06T09:03:26.998Z,86.90
2018-02-06T09:04:26.944Z,87.47
2018-02-06T09:05:26.899Z,87.94
2018-02-06T09:06:26.846Z,87.75
2018-02-06T09:07:26.789Z,87.66
2018-02-06T09:08:26.738Z,87.66
2018-02-06T09:09:26.690Z,87.66
2018-02-06T09:10:26.637Z,86.62
2018-02-06T09:11:26.586Z,86.71
2018-02-06T09:12:26.535Z,86.80
2018-02-06T09:13:26.486Z,86.71
2018-02-06T09:14:26.436Z,86.05
2018-02-06T09:15:26.384Z,86.52
2018-02-06T09:16:26.378Z,86.99
2018-02-06T09:17:26.284Z,86.62
2018-02-06T09:18:26.227Z,86.05
2018-02-06T09:19:26.190Z,85.77
2018-02-06T09:20:26.127Z,85.39
2018-02-06T09:21:26.081Z,85.30
2018-02-06T09:22:26.024Z,85.20
2018-02-06T09:23:26.030Z,85.30
2018-02-06T09:24:25.929Z,85.30
2018-02-06T09:25:25.877Z,85.86
2018-02-06T09:26:25.819Z,85.20
2018-02-06T09:27:25.772Z,85.30
2018-02-06T09:28:25.723Z,84.35
2018-02-06T09:29:25.670Z,84.54
2018-02-06T09:30:25.624Z,84.16
2018-02-06T09:31:25.566Z,84.16
2018-02-06T09:32:25.515Z,84.77
2018-02-06T09:33:25.464Z,84.39
2018-02-06T09:34:25.417Z,84.77
2018-02-06T09:35:25.365Z,84.39
2018-02-06T09:36:25.312Z,84.96
2018-02-06T09:37:25.263Z,84.30
2018-02-06T09:38:25.210Z,84.49
2018-02-06T09:39:25.162Z,84.20
2018-02-06T09:40:25.111Z,84.11
2018-02-06T09:41:25.058Z,83.64
2018-02-06T09:42:25.008Z,83.83
2018-02-06T09:43:24.958Z,83.83
2018-02-06T09:44:24.910Z,84.39
2018-02-06T09:45:24.907Z,84.39
2018-02-06T09:46:24.808Z,84.30
2018-02-06T09:47:24.756Z,84.11
2018-02-06T09:48:24.709Z,84.20
2018-02-06T09:49:24.653Z,84.11
2018-02-06T09:50:24.609Z,84.20
2018-02-06T09:51:24.554Z,81.93
2018-02-06T09:52:24.502Z,82.88
2018-02-06T09:53:24.470Z,82.88
2018-02-06T09:54:24.404Z,83.45
2018-02-06T09:55:24.359Z,82.12
2018-02-06T09:56:24.303Z,81.41
2018-02-06T09:57:24.252Z,81.88
2018-02-06T09:58:24.202Z,81.22
2018-02-06T09:59:24.149Z,81.32
2018-02-06T10:00:24.099Z,81.22
2018-02-06T10:01:24.046Z,81.60
2018-02-06T10:02:24.003Z,82.64
2018-02-06T10:03:23.945Z,82.35
2018-02-06T10:04:23.899Z,81.32
2018-02-06T10:05:23.849Z,80.94
2018-02-06T10:06:23.795Z,80.51
2018-02-06T10:07:23.747Z,79.28
2018-02-06T10:08:23.698Z,78.05
2018-02-06T10:09:23.648Z,78.80
2018-02-06T10:10:23.597Z,79.09
2018-02-06T10:11:23.548Z,77.58
2018-02-06T10:12:23.498Z,77.95
2018-02-06T10:13:23.447Z,76.91
2018-02-06T10:14:23.400Z,76.91
2018-02-06T10:15:23.349Z,77.10
2018-02-06T10:16:23.299Z,76.91
2018-02-06T10:17:23.251Z,75.49
2018-02-06T10:18:23.206Z,76.63
2018-02-06T10:19:23.150Z,76.15
2018-02-06T10:20:23.102Z,76.44
2018-02-06T10:21:23.053Z,76.44
2018-02-06T10:22:23.001Z,75.40
2018-02-06T10:23:22.953Z,75.59
2018-02-06T10:24:22.905Z,76.82
2018-02-06T10:25:22.856Z,75.21
2018-02-06T10:26:22.808Z,75.21
2018-02-06T10:27:22.757Z,75.40
2018-02-06T10:28:22.710Z,74.64
2018-02-06T10:29:22.657Z,74.07
2018-02-06T10:30:22.606Z,74.45
2018-02-06T10:31:22.557Z,74.64
2018-02-06T10:32:22.515Z,75.40
2018-02-06T10:33:22.465Z,75.96
2018-02-06T10:34:22.411Z,76.15
2018-02-06T10:35:22.415Z,75.40
2018-02-06T10:36:22.314Z,75.49
2018-02-06T10:37:22.264Z,75.96
2018-02-06T10:38:22.213Z,75.21
2018-02-06T10:39:22.165Z,76.06
2018-02-06T10:40:22.116Z,76.34
2018-02-06T10:41:22.071Z,75.31
2018-02-06T10:42:22.017Z,74.45
2018-02-06T10:43:21.975Z,74.55
2018-02-06T10:44:21.922Z,74.36
2018-02-06T10:45:21.870Z,74.55
2018-02-06T10:46:21.821Z,75.02
2018-02-06T10:47:21.775Z,74.58
2018-02-06T10:48:21.722Z,75.49
2018-02-06T10:49:21.677Z,75.31
2018-02-06T10:50:21.627Z,74.64
2018-02-06T10:51:21.582Z,75.40
2018-02-06T10:52:21.529Z,76.15
2018-02-06T10:53:21.481Z,76.44
2018-02-06T10:54:21.431Z,76.15
2018-02-06T10:55:21.382Z,75.59
2018-02-06T10:56:21.329Z,75.21
2018-02-06T10:57:21.285Z,76.63
2018-02-06T10:58:21.230Z,76.53
2018-02-06T10:59:21.183Z,75.96
2018-02-06T11:00:21.134Z,76.15
2018-02-06T11:01:21.085Z,76.63
2018-02-06T11:02:21.037Z,76.06
2018-02-06T11:03:20.992Z,75.49
2018-02-06T11:04:20.938Z,75.78
2018-02-06T11:05:20.889Z,75.12
2018-02-06T11:06:20.844Z,75.12
2018-02-06T11:07:20.789Z,75.12
2018-02-06T11:08:20.741Z,75.96
2018-02-06T11:09:20.694Z,75.12
2018-02-06T11:10:20.652Z,74.26
2018-02-06T11:11:20.593Z,74.55
2018-02-06T11:12:20.546Z,75.31
2018-02-06T11:13:20.503Z,76.67
2018-02-06T11:14:20.449Z,76.44
2018-02-06T11:15:20.404Z,76.53
2018-02-06T11:16:20.350Z,76.34
2018-02-06T11:17:20.303Z,76.63
2018-02-06T11:18:20.255Z,75.59
2018-02-06T11:19:20.204Z,75.40
2018-02-06T11:20:20.161Z,75.02
2018-02-06T11:21:20.106Z,74.55
2018-02-06T11:22:20.054Z,75.31
2018-02-06T11:23:20.011Z,75.40
2018-02-06T11:24:19.959Z,75.02
2018-02-06T11:25:19.911Z,74.93
2018-02-06T11:26:19.862Z,74.93
2018-02-06T11:27:19.810Z,74.55
2018-02-06T11:28:19.761Z,74.55
2018-02-06T11:29:19.717Z,75.59
2018-02-06T11:30:19.666Z,75.12
2018-02-06T11:31:19.614Z,75.78
2018-02-06T11:32:19.567Z,75.12
2018-02-06T11:33:19.515Z,75.96
2018-02-06T11:34:19.470Z,75.31
2018-02-06T11:35:19.419Z,74.83
2018-02-06T11:36:19.366Z,74.93
2018-02-06T11:37:19.323Z,75.59
2018-02-06T11:38:19.271Z,76.15
2018-02-06T11:39:19.219Z,76.63
2018-02-06T11:40:19.174Z,76.53
2018-02-06T11:41:19.121Z,76.25
2018-02-06T11:42:19.074Z,76.34
2018-02-06T11:43:19.023Z,76.72
2018-02-06T11:44:18.974Z,76.00
2018-02-06T11:45:18.927Z,75.59
2018-02-06T11:46:18.876Z,75.24
2018-02-06T11:47:18.826Z,74.83
2018-02-06T11:48:18.829Z,75.21
2018-02-06T11:49:18.729Z,75.12
2018-02-06T11:50:18.681Z,75.02
2018-02-06T11:51:18.629Z,75.12
2018-02-06T11:52:18.583Z,74.64
2018-02-06T11:53:18.535Z,75.05
2018-02-06T11:54:18.483Z,76.67
2018-02-06T11:55:18.433Z,76.29
2018-02-06T11:56:18.394Z,76.57
2018-02-06T11:57:18.341Z,76.95
2018-02-06T11:58:18.285Z,75.15
2018-02-06T11:59:18.240Z,76.19
2018-02-06T12:00:18.191Z,75.34
2018-02-06T12:01:18.142Z,76.19
2018-02-06T12:02:18.090Z,75.81
2018-02-06T12:03:18.040Z,75.72
2018-02-06T12:04:17.996Z,75.43
2018-02-06T12:05:17.944Z,74.77
2018-02-06T12:06:17.900Z,76.38
2018-02-06T12:07:17.848Z,76.38
2018-02-06T12:08:17.796Z,75.81
2018-02-06T12:09:17.749Z,76.10
2018-02-06T12:10:17.703Z,75.24
2018-02-06T12:11:17.653Z,75.43
2018-02-06T12:12:17.604Z,75.43
2018-02-06T12:13:17.552Z,76.57
2018-02-06T12:14:17.508Z,75.34
2018-02-06T12:15:17.456Z,76.19
2018-02-06T12:16:17.410Z,75.15
2018-02-06T12:17:17.356Z,74.96
2018-02-06T12:18:17.308Z,75.05
2018-02-06T12:19:17.257Z,75.15
2018-02-06T12:20:17.212Z,74.40
2018-02-06T12:21:17.161Z,74.68
2018-02-06T12:22:17.113Z,75.15
2018-02-06T12:23:17.063Z,74.77
2018-02-06T12:24:17.018Z,74.58
2018-02-06T12:25:16.968Z,75.15
2018-02-06T12:26:16.918Z,75.34
2018-02-06T12:27:16.868Z,74.30
2018-02-06T12:28:16.822Z,75.62
2018-02-06T12:29:16.772Z,76.00
2018-02-06T12:30:16.722Z,74.87
2018-02-06T12:31:16.678Z,74.77
2018-02-06T12:32:16.622Z,74.49
2018-02-06T12:33:16.577Z,75.05
2018-02-06T12:34:16.526Z,75.24
2018-02-06T12:35:16.478Z,74.21
2018-02-06T12:36:16.427Z,74.11
2018-02-06T12:37:16.381Z,74.40
2018-02-06T12:38:16.333Z,75.24
2018-02-06T12:39:16.282Z,75.72
2018-02-06T12:40:16.240Z,74.77
2018-02-06T12:41:16.183Z,74.11
2018-02-06T12:42:16.139Z,74.02
2018-02-06T12:43:16.088Z,74.68
2018-02-06T12:44:16.039Z,74.49
2018-02-06T12:45:15.993Z,74.68
2018-02-06T12:46:15.942Z,74.77
2018-02-06T12:47:15.894Z,74.96
2018-02-06T12:48:15.842Z,74.02
2018-02-06T12:49:15.798Z,74.40
2018-02-06T12:50:15.748Z,73.26
2018-02-06T12:51:15.698Z,74.11
2018-02-06T12:52:15.648Z,74.02
2018-02-06T12:53:15.603Z,74.77
2018-02-06T12:54:15.549Z,74.58
2018-02-06T12:55:15.501Z,74.21
2018-02-06T12:56:15.460Z,74.11
2018-02-06T12:57:15.409Z,73.54
2018-02-06T12:58:15.360Z,74.40
2018-02-06T12:59:15.312Z,73.45
2018-02-06T13:00:15.258Z,72.97
2018-02-06T13:01:15.211Z,72.78
2018-02-06T13:02:15.162Z,73.20
2018-02-06T13:03:15.117Z,73.39
2018-02-06T13:04:15.115Z,73.58
2018-02-06T13:05:15.015Z,74.43
2018-02-06T13:06:15.017Z,73.30
2018-02-06T13:07:14.923Z,74.43
2018-02-06T13:08:14.973Z,74.62
2018-02-06T13:09:14.868Z,74.24
2018-02-06T13:10:14.804Z,73.77
2018-02-06T13:11:14.783Z,73.58
2018-02-06T13:12:14.705Z,73.01
2018-02-06T13:13:14.731Z,73.49
2018-02-06T13:14:14.598Z,72.92
2018-02-06T13:15:14.620Z,74.24
2018-02-06T13:16:14.585Z,74.05
2018-02-06T13:17:14.481Z,73.30
2018-02-06T13:18:14.411Z,72.44
2018-02-06T13:19:14.335Z,72.53
2018-02-06T13:20:14.287Z,73.77
2018-02-06T13:21:14.241Z,73.39
2018-02-06T13:22:14.194Z,73.26
2018-02-06T13:23:14.146Z,73.77
2018-02-06T13:24:14.094Z,74.15
2018-02-06T13:25:14.045Z,73.58
2018-02-06T13:26:14.002Z,73.68
2018-02-06T13:27:13.952Z,73.96
2018-02-06T13:28:13.904Z,74.24
2018-02-06T13:29:13.856Z,73.39
2018-02-06T13:30:13.807Z,72.92
2018-02-06T13:31:13.756Z,72.25
2018-02-06T13:32:13.708Z,72.73
2018-02-06T13:33:13.668Z,72.25
2018-02-06T13:34:13.612Z,73.30
2018-02-06T13:35:13.564Z,73.39
2018-02-06T13:36:13.516Z,73.11
2018-02-06T13:37:13.468Z,73.49
2018-02-06T13:38:13.420Z,73.68
2018-02-06T13:39:13.370Z,73.86
2018-02-06T13:40:13.323Z,74.15
2018-02-06T13:41:13.273Z,73.58
2018-02-06T13:42:13.230Z,73.20
2018-02-06T13:43:13.176Z,72.44
2018-02-06T13:44:13.134Z,73.11
2018-02-06T13:45:13.080Z,72.63
2018-02-06T13:46:13.032Z,73.68
2018-02-06T13:47:12.984Z,73.30
2018-02-06T13:48:12.932Z,73.20
2018-02-06T13:49:12.888Z,72.34
2018-02-06T13:50:12.838Z,72.44
2018-02-06T13:51:12.787Z,71.88
2018-02-06T13:52:12.742Z,71.31
2018-02-06T13:53:12.693Z,71.97
2018-02-06T13:54:12.645Z,72.16
2018-02-06T13:55:12.597Z,71.78
2018-02-06T13:56:12.546Z,71.88
2018-02-06T13:57:12.500Z,71.69
2018-02-06T13:58:12.449Z,71.78
2018-02-06T13:59:12.402Z,71.97
2018-02-06T14:00:12.358Z,73.68
2018-02-06T14:01:12.307Z,73.58
2018-02-06T14:02:12.259Z,73.77
2018-02-06T14:03:12.220Z,73.49
2018-02-06T14:04:12.167Z,73.11
2018-02-06T14:05:12.125Z,72.92
2018-02-06T14:06:12.065Z,73.96
2018-02-06T14:07:12.015Z,74.81
2018-02-06T14:08:11.971Z,75.47
2018-02-06T14:09:11.921Z,75.00
2018-02-06T14:10:11.874Z,75.19
2018-02-06T14:11:11.825Z,75.09
2018-02-06T14:12:11.774Z,74.71
2018-02-06T14:13:11.728Z,75.15
2018-02-06T14:14:11.686Z,75.05
2018-02-06T14:15:11.629Z,75.43
2018-02-06T14:16:11.586Z,75.15
2018-02-06T14:17:11.542Z,75.24
2018-02-06T14:18:11.486Z,75.62
2018-02-06T14:19:11.434Z,75.53
2018-02-06T14:20:11.387Z,75.72
2018-02-06T14:21:11.339Z,75.24
2018-02-06T14:22:11.289Z,76.67
2018-02-06T14:23:11.244Z,77.04
2018-02-06T14:24:11.194Z,76.48
2018-02-06T14:25:11.145Z,76.48
2018-02-06T14:26:11.095Z,75.72
2018-02-06T14:27:11.048Z,76.38
2018-02-06T14:28:10.997Z,76.67
2018-02-06T14:29:10.952Z,77.51
2018-02-06T14:30:10.907Z,76.86
2018-02-06T14:31:10.856Z,76.95
2018-02-06T14:32:10.805Z,77.70
2018-02-06T14:33:10.755Z,77.04
2018-02-06T14:34:10.709Z,77.99
2018-02-06T14:35:10.665Z,77.89
2018-02-06T14:36:10.608Z,77.61
2018-02-06T14:37:10.561Z,77.61
2018-02-06T14:38:10.513Z,79.03
2018-02-06T14:39:10.461Z,78.18
2018-02-06T14:40:10.413Z,78.27
2018-02-06T14:41:10.370Z,78.27
2018-02-06T14:42:10.319Z,77.89
2018-02-06T14:43:10.270Z,77.61
2018-02-06T14:44:10.220Z,77.51
2018-02-06T14:45:10.170Z,77.51
2018-02-06T14:46:10.123Z,77.42
2018-02-06T14:47:10.082Z,77.70
2018-02-06T14:48:10.027Z,77.42
2018-02-06T14:49:10.027Z,76.95
2018-02-06T14:50:09.927Z,77.61
2018-02-06T14:51:09.883Z,78.18
2018-02-06T14:52:09.840Z,78.08
2018-02-06T14:53:09.778Z,78.85
2018-02-06T14:54:09.728Z,79.22
2018-02-06T14:55:09.684Z,78.94
2018-02-06T14:56:09.635Z,78.85